Terminal Aerodrome Forecast
Issued by NWS Shreveport, LA

Current Version | Previous Version | Text Only | Print | Product List | Glossary On
Versions: 1 2 3 4 5 6 7 8 9 10 11 12 13 14 15 16 17 18 19 20 21 22
638
FTUS44 KSHV 281121
TAFTYR
TAF
KTYR 281121Z 2812/2912 05010KT P6SM -SHRA VCTS BKN015CB OVC030
     FM281400 20007KT P6SM VCSH BKN025
     FM281800 22008KT P6SM VCTS OVC050CB
     FM282300 VRB06KT P6SM -SHRA VCTS BKN050CB
     FM290300 02004KT P6SM OVC050=

USA.gov is the U.S. government's official web portal to all federal, state and local government web resources and services.